sensor_id;sensor_type;location;lat;lon;timestamp;pressure;altitude;pressure_sealevel;temperature
15575;BMP180;7888;46.748;8.102;2022-08-21T00:01:16;94327.00;;;22.70
15575;BMP180;7888;46.748;8.102;2022-08-21T00:03:42;94324.00;;;22.70
15575;BMP180;7888;46.748;8.102;2022-08-21T00:06:08;94323.00;;;22.70
15575;BMP180;7888;46.748;8.102;2022-08-21T00:08:35;94328.00;;;22.70
15575;BMP180;7888;46.748;8.102;2022-08-21T00:11:01;94321.00;;;22.70
15575;BMP180;7888;46.748;8.102;2022-08-21T00:13:27;94325.00;;;22.70
15575;BMP180;7888;46.748;8.102;2022-08-21T00:15:53;94313.00;;;22.70
15575;BMP180;7888;46.748;8.102;2022-08-21T00:18:20;94324.00;;;22.70
15575;BMP180;7888;46.748;8.102;2022-08-21T00:20:46;94321.00;;;22.60
15575;BMP180;7888;46.748;8.102;2022-08-21T00:23:13;94313.00;;;22.50
15575;BMP180;7888;46.748;8.102;2022-08-21T00:25:42;94324.00;;;22.60
15575;BMP180;7888;46.748;8.102;2022-08-21T00:28:08;94324.00;;;22.60
15575;BMP180;7888;46.748;8.102;2022-08-21T00:30:34;94315.00;;;22.60
15575;BMP180;7888;46.748;8.102;2022-08-21T00:33:02;94314.00;;;22.60
15575;BMP180;7888;46.748;8.102;2022-08-21T00:35:34;94314.00;;;22.50
15575;BMP180;7888;46.748;8.102;2022-08-21T00:38:00;94304.00;;;22.60
15575;BMP180;7888;46.748;8.102;2022-08-21T00:40:32;94309.00;;;22.50
15575;BMP180;7888;46.748;8.102;2022-08-21T00:43:01;94304.00;;;22.60
15575;BMP180;7888;46.748;8.102;2022-08-21T00:45:27;94304.00;;;22.60
15575;BMP180;7888;46.748;8.102;2022-08-21T00:47:53;94296.00;;;22.50
15575;BMP180;7888;46.748;8.102;2022-08-21T00:50:23;94294.00;;;22.50
15575;BMP180;7888;46.748;8.102;2022-08-21T00:52:52;94314.00;;;22.50
15575;BMP180;7888;46.748;8.102;2022-08-21T00:55:19;94295.00;;;22.40
15575;BMP180;7888;46.748;8.102;2022-08-21T00:57:52;94301.00;;;22.40
15575;BMP180;7888;46.748;8.102;2022-08-21T01:00:27;94291.00;;;22.30
15575;BMP180;7888;46.748;8.102;2022-08-21T01:02:59;94298.00;;;22.00
15575;BMP180;7888;46.748;8.102;2022-08-21T01:05:26;94287.00;;;22.30
15575;BMP180;7888;46.748;8.102;2022-08-21T01:07:54;94277.00;;;22.30
15575;BMP180;7888;46.748;8.102;2022-08-21T01:10:23;94267.00;;;22.30
15575;BMP180;7888;46.748;8.102;2022-08-21T01:12:55;94290.00;;;22.20
15575;BMP180;7888;46.748;8.102;2022-08-21T01:15:25;94284.00;;;22.30
15575;BMP180;7888;46.748;8.102;2022-08-21T01:17:53;94286.00;;;22.30
15575;BMP180;7888;46.748;8.102;2022-08-21T01:20:19;94279.00;;;22.30
15575;BMP180;7888;46.748;8.102;2022-08-21T01:22:45;94284.00;;;22.30
15575;BMP180;7888;46.748;8.102;2022-08-21T01:25:16;94278.00;;;22.20
15575;BMP180;7888;46.748;8.102;2022-08-21T01:27:43;94277.00;;;22.20
15575;BMP180;7888;46.748;8.102;2022-08-21T01:30:18;94275.00;;;22.10
15575;BMP180;7888;46.748;8.102;2022-08-21T01:32:46;94273.00;;;22.10
15575;BMP180;7888;46.748;8.102;2022-08-21T01:35:15;94274.00;;;22.10
15575;BMP180;7888;46.748;8.102;2022-08-21T01:37:42;94275.00;;;22.10
15575;BMP180;7888;46.748;8.102;2022-08-21T01:40:10;94229.00;;;22.00
15575;BMP180;7888;46.748;8.102;2022-08-21T01:42:37;94276.00;;;22.00
15575;BMP180;7888;46.748;8.102;2022-08-21T01:45:06;94284.00;;;22.00
15575;BMP180;7888;46.748;8.102;2022-08-21T01:47:32;94285.00;;;22.00
15575;BMP180;7888;46.748;8.102;2022-08-21T01:49:58;94280.00;;;22.00
15575;BMP180;7888;46.748;8.102;2022-08-21T01:52:24;94278.00;;;21.90
15575;BMP180;7888;46.748;8.102;2022-08-21T01:54:50;94275.00;;;21.90
15575;BMP180;7888;46.748;8.102;2022-08-21T01:57:16;94272.00;;;21.90
15575;BMP180;7888;46.748;8.102;2022-08-21T01:59:42;94268.00;;;21.80
15575;BMP180;7888;46.748;8.102;2022-08-21T02:02:08;94270.00;;;21.70
15575;BMP180;7888;46.748;8.102;2022-08-21T02:04:34;94268.00;;;21.80
15575;BMP180;7888;46.748;8.102;2022-08-21T02:07:01;94266.00;;;21.70
15575;BMP180;7888;46.748;8.102;2022-08-21T02:09:27;94259.00;;;21.70
15575;BMP180;7888;46.748;8.102;2022-08-21T02:11:54;94240.00;;;21.70
15575;BMP180;7888;46.748;8.102;2022-08-21T02:14:20;94261.00;;;21.70
15575;BMP180;7888;46.748;8.102;2022-08-21T02:16:46;94254.00;;;21.60
15575;BMP180;7888;46.748;8.102;2022-08-21T02:19:15;94242.00;;;21.60
15575;BMP180;7888;46.748;8.102;2022-08-21T02:21:41;94225.00;;;21.60
15575;BMP180;7888;46.748;8.102;2022-08-21T02:24:09;94225.00;;;21.60
15575;BMP180;7888;46.748;8.102;2022-08-21T02:26:35;94240.00;;;21.60
15575;BMP180;7888;46.748;8.102;2022-08-21T02:29:03;94221.00;;;21.60
15575;BMP180;7888;46.748;8.102;2022-08-21T02:31:29;94230.00;;;21.50
15575;BMP180;7888;46.748;8.102;2022-08-21T02:33:55;94241.00;;;21.50
15575;BMP180;7888;46.748;8.102;2022-08-21T02:36:21;94226.00;;;21.50
15575;BMP180;7888;46.748;8.102;2022-08-21T02:38:46;94218.00;;;21.50
15575;BMP180;7888;46.748;8.102;2022-08-21T02:41:17;94237.00;;;21.30
15575;BMP180;7888;46.748;8.102;2022-08-21T02:43:45;94233.00;;;21.50
15575;BMP180;7888;46.748;8.102;2022-08-21T02:46:14;94246.00;;;21.40
15575;BMP180;7888;46.748;8.102;2022-08-21T02:48:41;94252.00;;;21.40
15575;BMP180;7888;46.748;8.102;2022-08-21T02:51:14;94238.00;;;21.30
15575;BMP180;7888;46.748;8.102;2022-08-21T02:53:42;94222.00;;;21.40
15575;BMP180;7888;46.748;8.102;2022-08-21T02:56:12;94231.00;;;21.30
15575;BMP180;7888;46.748;8.102;2022-08-21T02:58:43;94208.00;;;21.30
15575;BMP180;7888;46.748;8.102;2022-08-21T03:01:11;94232.00;;;21.30
15575;BMP180;7888;46.748;8.102;2022-08-21T03:03:39;94228.00;;;21.30
15575;BMP180;7888;46.748;8.102;2022-08-21T03:06:08;94228.00;;;21.30
15575;BMP180;7888;46.748;8.102;2022-08-21T03:08:35;94234.00;;;21.20
15575;BMP180;7888;46.748;8.102;2022-08-21T03:11:02;94231.00;;;21.30
15575;BMP180;7888;46.748;8.102;2022-08-21T03:13:28;94214.00;;;21.20
15575;BMP180;7888;46.748;8.102;2022-08-21T03:15:55;94219.00;;;21.20
15575;BMP180;7888;46.748;8.102;2022-08-21T03:18:21;94206.00;;;21.10
15575;BMP180;7888;46.748;8.102;2022-08-21T03:20:48;94210.00;;;21.20
15575;BMP180;7888;46.748;8.102;2022-08-21T03:23:16;94204.00;;;21.10
15575;BMP180;7888;46.748;8.102;2022-08-21T03:25:45;94214.00;;;21.10
15575;BMP180;7888;46.748;8.102;2022-08-21T03:28:18;94211.00;;;21.10
15575;BMP180;7888;46.748;8.102;2022-08-21T03:30:47;94212.00;;;21.10
15575;BMP180;7888;46.748;8.102;2022-08-21T03:33:14;94209.00;;;21.10
15575;BMP180;7888;46.748;8.102;2022-08-21T03:35:46;94201.00;;;21.00
15575;BMP180;7888;46.748;8.102;2022-08-21T03:38:13;94208.00;;;21.10
15575;BMP180;7888;46.748;8.102;2022-08-21T03:40:40;94216.00;;;21.00
15575;BMP180;7888;46.748;8.102;2022-08-21T03:43:06;94213.00;;;21.00
15575;BMP180;7888;46.748;8.102;2022-08-21T03:45:35;94218.00;;;21.00
15575;BMP180;7888;46.748;8.102;2022-08-21T03:48:04;94203.00;;;20.90
15575;BMP180;7888;46.748;8.102;2022-08-21T03:50:36;94217.00;;;20.80
15575;BMP180;7888;46.748;8.102;2022-08-21T03:53:03;94214.00;;;20.90
15575;BMP180;7888;46.748;8.102;2022-08-21T03:55:29;94215.00;;;20.90
15575;BMP180;7888;46.748;8.102;2022-08-21T03:57:55;94218.00;;;20.90
15575;BMP180;7888;46.748;8.102;2022-08-21T04:00:22;94201.00;;;20.80
15575;BMP180;7888;46.748;8.102;2022-08-21T04:02:48;94223.00;;;20.90
15575;BMP180;7888;46.748;8.102;2022-08-21T04:05:17;94192.00;;;20.80
15575;BMP180;7888;46.748;8.102;2022-08-21T04:08:01;94225.00;;;20.70
15575;BMP180;7888;46.748;8.102;2022-08-21T04:10:31;94222.00;;;20.70
15575;BMP180;7888;46.748;8.102;2022-08-21T04:12:58;94227.00;;;20.70
15575;BMP180;7888;46.748;8.102;2022-08-21T04:15:25;94229.00;;;20.70
15575;BMP180;7888;46.748;8.102;2022-08-21T04:17:52;94238.00;;;20.70
15575;BMP180;7888;46.748;8.102;2022-08-21T04:20:20;94243.00;;;20.70
15575;BMP180;7888;46.748;8.102;2022-08-21T04:22:47;94236.00;;;20.70
15575;BMP180;7888;46.748;8.102;2022-08-21T04:25:15;94238.00;;;20.60
15575;BMP180;7888;46.748;8.102;2022-08-21T04:27:41;94238.00;;;20.60
15575;BMP180;7888;46.748;8.102;2022-08-21T04:30:09;94222.00;;;20.60
15575;BMP180;7888;46.748;8.102;2022-08-21T04:32:37;94233.00;;;20.60
15575;BMP180;7888;46.748;8.102;2022-08-21T04:35:10;94235.00;;;20.50
15575;BMP180;7888;46.748;8.102;2022-08-21T04:37:36;94238.00;;;20.60
15575;BMP180;7888;46.748;8.102;2022-08-21T04:40:04;94229.00;;;20.50
15575;BMP180;7888;46.748;8.102;2022-08-21T04:42:30;94259.00;;;20.50
15575;BMP180;7888;46.748;8.102;2022-08-21T04:44:56;94253.00;;;20.50
15575;BMP180;7888;46.748;8.102;2022-08-21T04:47:23;94259.00;;;20.50
15575;BMP180;7888;46.748;8.102;2022-08-21T04:49:50;94257.00;;;20.50
15575;BMP180;7888;46.748;8.102;2022-08-21T04:52:21;94245.00;;;20.50
15575;BMP180;7888;46.748;8.102;2022-08-21T04:54:50;94247.00;;;20.50
15575;BMP180;7888;46.748;8.102;2022-08-21T04:57:18;94239.00;;;20.50
15575;BMP180;7888;46.748;8.102;2022-08-21T04:59:50;94254.00;;;20.40
15575;BMP180;7888;46.748;8.102;2022-08-21T05:02:17;94245.00;;;20.40
15575;BMP180;7888;46.748;8.102;2022-08-21T05:04:54;94232.00;;;20.30
15575;BMP180;7888;46.748;8.102;2022-08-21T05:07:26;94250.00;;;20.30
15575;BMP180;7888;46.748;8.102;2022-08-21T05:09:54;94237.00;;;20.40
15575;BMP180;7888;46.748;8.102;2022-08-21T05:12:20;94254.00;;;20.40
15575;BMP180;7888;46.748;8.102;2022-08-21T05:14:47;94246.00;;;20.40
15575;BMP180;7888;46.748;8.102;2022-08-21T05:17:13;94256.00;;;20.30
15575;BMP180;7888;46.748;8.102;2022-08-21T05:19:39;94261.00;;;20.20
15575;BMP180;7888;46.748;8.102;2022-08-21T05:22:06;94241.00;;;20.30
15575;BMP180;7888;46.748;8.102;2022-08-21T05:24:32;94246.00;;;20.30
15575;BMP180;7888;46.748;8.102;2022-08-21T05:26:58;94250.00;;;20.30
15575;BMP180;7888;46.748;8.102;2022-08-21T05:29:24;94249.00;;;20.30
15575;BMP180;7888;46.748;8.102;2022-08-21T05:31:50;94252.00;;;20.30
15575;BMP180;7888;46.748;8.102;2022-08-21T05:34:23;94246.00;;;20.20
15575;BMP180;7888;46.748;8.102;2022-08-21T05:36:49;94217.00;;;20.30
15575;BMP180;7888;46.748;8.102;2022-08-21T05:39:15;94252.00;;;20.30
15575;BMP180;7888;46.748;8.102;2022-08-21T05:41:41;94253.00;;;20.40
15575;BMP180;7888;46.748;8.102;2022-08-21T05:44:07;94257.00;;;20.40
15575;BMP180;7888;46.748;8.102;2022-08-21T05:46:33;94237.00;;;20.40
15575;BMP180;7888;46.748;8.102;2022-08-21T05:48:59;94251.00;;;20.50
15575;BMP180;7888;46.748;8.102;2022-08-21T05:51:25;94247.00;;;20.50
15575;BMP180;7888;46.748;8.102;2022-08-21T05:53:51;94252.00;;;20.50
15575;BMP180;7888;46.748;8.102;2022-08-21T05:56:17;94247.00;;;20.50
15575;BMP180;7888;46.748;8.102;2022-08-21T05:58:43;94240.00;;;20.60
15575;BMP180;7888;46.748;8.102;2022-08-21T06:01:09;94242.00;;;20.60
15575;BMP180;7888;46.748;8.102;2022-08-21T06:03:39;94246.00;;;20.60
15575;BMP180;7888;46.748;8.102;2022-08-21T06:06:06;94231.00;;;20.70
15575;BMP180;7888;46.748;8.102;2022-08-21T06:08:32;94247.00;;;20.70
15575;BMP180;7888;46.748;8.102;2022-08-21T06:11:01;94245.00;;;20.70
15575;BMP180;7888;46.748;8.102;2022-08-21T06:13:28;94242.00;;;20.90
15575;BMP180;7888;46.748;8.102;2022-08-21T06:16:13;94239.00;;;20.90
15575;BMP180;7888;46.748;8.102;2022-08-21T06:18:39;94231.00;;;21.00
15575;BMP180;7888;46.748;8.102;2022-08-21T06:21:06;94232.00;;;21.10
15575;BMP180;7888;46.748;8.102;2022-08-21T06:23:34;94225.00;;;21.10
15575;BMP180;7888;46.748;8.102;2022-08-21T06:26:02;94181.00;;;21.20
15575;BMP180;7888;46.748;8.102;2022-08-21T06:28:29;94224.00;;;21.30
15575;BMP180;7888;46.748;8.102;2022-08-21T06:30:55;94219.00;;;21.40
15575;BMP180;7888;46.748;8.102;2022-08-21T06:33:21;94220.00;;;21.50
15575;BMP180;7888;46.748;8.102;2022-08-21T06:35:47;94224.00;;;21.60
15575;BMP180;7888;46.748;8.102;2022-08-21T06:38:14;94220.00;;;21.70
15575;BMP180;7888;46.748;8.102;2022-08-21T06:40:40;94218.00;;;21.70
15575;BMP180;7888;46.748;8.102;2022-08-21T06:43:13;94215.00;;;21.70
15575;BMP180;7888;46.748;8.102;2022-08-21T06:45:39;94221.00;;;21.80
15575;BMP180;7888;46.748;8.102;2022-08-21T06:48:06;94214.00;;;21.90
15575;BMP180;7888;46.748;8.102;2022-08-21T06:50:33;94206.00;;;21.90
15575;BMP180;7888;46.748;8.102;2022-08-21T06:53:07;94214.00;;;22.00
15575;BMP180;7888;46.748;8.102;2022-08-21T06:55:34;94218.00;;;22.10
15575;BMP180;7888;46.748;8.102;2022-08-21T06:58:00;94213.00;;;22.20
15575;BMP180;7888;46.748;8.102;2022-08-21T07:00:26;94214.00;;;22.20
15575;BMP180;7888;46.748;8.102;2022-08-21T07:02:52;94227.00;;;22.30
15575;BMP180;7888;46.748;8.102;2022-08-21T07:05:18;94217.00;;;22.40
15575;BMP180;7888;46.748;8.102;2022-08-21T07:07:44;94223.00;;;22.50
15575;BMP180;7888;46.748;8.102;2022-08-21T07:10:10;94216.00;;;22.50
15575;BMP180;7888;46.748;8.102;2022-08-21T07:12:36;94214.00;;;22.60
15575;BMP180;7888;46.748;8.102;2022-08-21T07:15:03;94215.00;;;22.70
15575;BMP180;7888;46.748;8.102;2022-08-21T07:17:29;94211.00;;;22.80
15575;BMP180;7888;46.748;8.102;2022-08-21T07:19:54;94211.00;;;22.90
15575;BMP180;7888;46.748;8.102;2022-08-21T07:22:22;94211.00;;;22.90
15575;BMP180;7888;46.748;8.102;2022-08-21T07:24:47;94207.00;;;23.00
15575;BMP180;7888;46.748;8.102;2022-08-21T07:27:13;94204.00;;;23.00
15575;BMP180;7888;46.748;8.102;2022-08-21T07:29:39;94195.00;;;23.10
15575;BMP180;7888;46.748;8.102;2022-08-21T07:32:05;94162.00;;;23.10
15575;BMP180;7888;46.748;8.102;2022-08-21T07:34:31;94167.00;;;23.30
15575;BMP180;7888;46.748;8.102;2022-08-21T07:36:58;94200.00;;;23.40
15575;BMP180;7888;46.748;8.102;2022-08-21T07:39:24;94183.00;;;23.50
15575;BMP180;7888;46.748;8.102;2022-08-21T07:41:50;94184.00;;;23.60
15575;BMP180;7888;46.748;8.102;2022-08-21T07:44:17;94169.00;;;23.70
15575;BMP180;7888;46.748;8.102;2022-08-21T07:46:43;94170.00;;;23.80
15575;BMP180;7888;46.748;8.102;2022-08-21T07:49:08;94182.00;;;24.00
15575;BMP180;7888;46.748;8.102;2022-08-21T07:51:34;94173.00;;;24.10
15575;BMP180;7888;46.748;8.102;2022-08-21T07:54:01;94171.00;;;24.10
15575;BMP180;7888;46.748;8.102;2022-08-21T07:56:29;94162.00;;;24.20
15575;BMP180;7888;46.748;8.102;2022-08-21T07:58:56;94178.00;;;24.30
15575;BMP180;7888;46.748;8.102;2022-08-21T08:01:23;94189.00;;;24.40
15575;BMP180;7888;46.748;8.102;2022-08-21T08:03:50;94181.00;;;24.40
15575;BMP180;7888;46.748;8.102;2022-08-21T08:06:16;94184.00;;;24.50
15575;BMP180;7888;46.748;8.102;2022-08-21T08:08:45;94180.00;;;24.50
15575;BMP180;7888;46.748;8.102;2022-08-21T08:11:12;94181.00;;;24.60
15575;BMP180;7888;46.748;8.102;2022-08-21T08:13:47;94179.00;;;24.70
15575;BMP180;7888;46.748;8.102;2022-08-21T08:16:14;94180.00;;;24.80
15575;BMP180;7888;46.748;8.102;2022-08-21T08:18:40;94186.00;;;25.00
15575;BMP180;7888;46.748;8.102;2022-08-21T08:21:08;94178.00;;;25.10
15575;BMP180;7888;46.748;8.102;2022-08-21T08:23:35;94173.00;;;25.20
15575;BMP180;7888;46.748;8.102;2022-08-21T08:26:01;94166.00;;;25.40
15575;BMP180;7888;46.748;8.102;2022-08-21T08:28:31;94176.00;;;25.50
15575;BMP180;7888;46.748;8.102;2022-08-21T08:30:59;94142.00;;;25.70
15575;BMP180;7888;46.748;8.102;2022-08-21T08:33:25;94181.00;;;25.80
15575;BMP180;7888;46.748;8.102;2022-08-21T08:35:52;94180.00;;;25.90
15575;BMP180;7888;46.748;8.102;2022-08-21T08:38:20;94177.00;;;26.00
15575;BMP180;7888;46.748;8.102;2022-08-21T08:41:20;94180.00;;;26.00
15575;BMP180;7888;46.748;8.102;2022-08-21T08:43:56;94168.00;;;26.10
15575;BMP180;7888;46.748;8.102;2022-08-21T08:46:41;94185.00;;;26.20
15575;BMP180;7888;46.748;8.102;2022-08-21T08:49:27;94176.00;;;26.30
15575;BMP180;7888;46.748;8.102;2022-08-21T08:52:31;94166.00;;;26.40
15575;BMP180;7888;46.748;8.102;2022-08-21T08:55:08;94156.00;;;26.40
15575;BMP180;7888;46.748;8.102;2022-08-21T08:57:37;94166.00;;;26.50
15575;BMP180;7888;46.748;8.102;2022-08-21T09:00:11;94171.00;;;26.50
15575;BMP180;7888;46.748;8.102;2022-08-21T09:02:43;94155.00;;;26.60
15575;BMP180;7888;46.748;8.102;2022-08-21T09:05:42;94159.00;;;26.50
15575;BMP180;7888;46.748;8.102;2022-08-21T09:11:15;94158.00;;;26.70
15575;BMP180;7888;46.748;8.102;2022-08-21T09:14:21;94157.00;;;26.80
15575;BMP180;7888;46.748;8.102;2022-08-21T09:18:03;94163.00;;;26.90
15575;BMP180;7888;46.748;8.102;2022-08-21T09:29:27;94152.00;;;27.30
15575;BMP180;7888;46.748;8.102;2022-08-21T09:31:55;94154.00;;;27.40
15575;BMP180;7888;46.748;8.102;2022-08-21T09:34:30;94153.00;;;27.30
15575;BMP180;7888;46.748;8.102;2022-08-21T09:36:58;94159.00;;;27.50
15575;BMP180;7888;46.748;8.102;2022-08-21T09:39:29;94155.00;;;27.50
15575;BMP180;7888;46.748;8.102;2022-08-21T09:42:04;94148.00;;;27.50
15575;BMP180;7888;46.748;8.102;2022-08-21T09:44:34;94146.00;;;27.60
15575;BMP180;7888;46.748;8.102;2022-08-21T09:47:06;94144.00;;;27.70
15575;BMP180;7888;46.748;8.102;2022-08-21T09:49:40;94146.00;;;27.70
15575;BMP180;7888;46.748;8.102;2022-08-21T09:52:22;94143.00;;;27.80
15575;BMP180;7888;46.748;8.102;2022-08-21T09:54:54;94142.00;;;27.90
15575;BMP180;7888;46.748;8.102;2022-08-21T09:57:27;94145.00;;;28.00
15575;BMP180;7888;46.748;8.102;2022-08-21T10:00:28;94151.00;;;28.00
15575;BMP180;7888;46.748;8.102;2022-08-21T10:03:19;94155.00;;;28.10
15575;BMP180;7888;46.748;8.102;2022-08-21T10:06:04;94157.00;;;28.10
15575;BMP180;7888;46.748;8.102;2022-08-21T10:08:33;94150.00;;;28.10
15575;BMP180;7888;46.748;8.102;2022-08-21T10:11:09;94138.00;;;28.20
15575;BMP180;7888;46.748;8.102;2022-08-21T10:25:32;94152.00;;;28.60
15575;BMP180;7888;46.748;8.102;2022-08-21T10:28:16;94140.00;;;28.70
15575;BMP180;7888;46.748;8.102;2022-08-21T10:42:29;94116.00;;;29.00
15575;BMP180;7888;46.748;8.102;2022-08-21T10:45:31;94118.00;;;29.00
15575;BMP180;7888;46.748;8.102;2022-08-21T10:48:05;94112.00;;;29.10
15575;BMP180;7888;46.748;8.102;2022-08-21T10:50:55;94101.00;;;29.20
15575;BMP180;7888;46.748;8.102;2022-08-21T10:53:45;94095.00;;;29.20
15575;BMP180;7888;46.748;8.102;2022-08-21T10:56:22;94056.00;;;29.30
15575;BMP180;7888;46.748;8.102;2022-08-21T10:59:42;94086.00;;;29.40
15575;BMP180;7888;46.748;8.102;2022-08-21T11:02:23;94074.00;;;29.60
15575;BMP180;7888;46.748;8.102;2022-08-21T11:05:19;94084.00;;;29.70
15575;BMP180;7888;46.748;8.102;2022-08-21T11:08:11;94073.00;;;29.80
15575;BMP180;7888;46.748;8.102;2022-08-21T11:10:46;94076.00;;;29.90
15575;BMP180;7888;46.748;8.102;2022-08-21T11:13:21;94078.00;;;30.00
15575;BMP180;7888;46.748;8.102;2022-08-21T11:19:00;94051.00;;;30.10
15575;BMP180;7888;46.748;8.102;2022-08-21T11:24:34;94051.00;;;30.20
15575;BMP180;7888;46.748;8.102;2022-08-21T11:30:07;94050.00;;;30.50
15575;BMP180;7888;46.748;8.102;2022-08-21T11:38:46;94033.00;;;30.90
15575;BMP180;7888;46.748;8.102;2022-08-21T11:41:40;94025.00;;;30.90
15575;BMP180;7888;46.748;8.102;2022-08-21T11:47:12;94026.00;;;30.90
15575;BMP180;7888;46.748;8.102;2022-08-21T11:52:51;94012.00;;;30.70
15575;BMP180;7888;46.748;8.102;2022-08-21T11:55:36;94019.00;;;30.60
15575;BMP180;7888;46.748;8.102;2022-08-21T12:01:09;94037.00;;;30.60
15575;BMP180;7888;46.748;8.102;2022-08-21T12:03:54;94016.00;;;30.60
15575;BMP180;7888;46.748;8.102;2022-08-21T12:06:37;94028.00;;;30.70
15575;BMP180;7888;46.748;8.102;2022-08-21T12:09:10;94036.00;;;30.80
15575;BMP180;7888;46.748;8.102;2022-08-21T12:12:45;94006.00;;;30.80
15575;BMP180;7888;46.748;8.102;2022-08-21T12:14:49;94021.00;;;30.90
15575;BMP180;7888;46.748;8.102;2022-08-21T12:17:23;94023.00;;;31.00
15575;BMP180;7888;46.748;8.102;2022-08-21T12:20:34;94028.00;;;31.00
15575;BMP180;7888;46.748;8.102;2022-08-21T12:23:18;94026.00;;;31.10
15575;BMP180;7888;46.748;8.102;2022-08-21T12:28:39;94025.00;;;31.30
15575;BMP180;7888;46.748;8.102;2022-08-21T12:31:22;94027.00;;;31.30
15575;BMP180;7888;46.748;8.102;2022-08-21T12:33:58;94036.00;;;31.30
15575;BMP180;7888;46.748;8.102;2022-08-21T12:36:49;94038.00;;;31.30
15575;BMP180;7888;46.748;8.102;2022-08-21T12:39:28;94028.00;;;31.40
15575;BMP180;7888;46.748;8.102;2022-08-21T12:42:11;94013.00;;;31.40
15575;BMP180;7888;46.748;8.102;2022-08-21T12:44:51;94032.00;;;31.50
15575;BMP180;7888;46.748;8.102;2022-08-21T12:48:25;94029.00;;;31.50
15575;BMP180;7888;46.748;8.102;2022-08-21T12:50:55;94024.00;;;31.70
15575;BMP180;7888;46.748;8.102;2022-08-21T12:53:50;94031.00;;;31.70
15575;BMP180;7888;46.748;8.102;2022-08-21T12:56:24;94028.00;;;31.70
15575;BMP180;7888;46.748;8.102;2022-08-21T12:59:04;94034.00;;;31.80
15575;BMP180;7888;46.748;8.102;2022-08-21T13:01:36;94017.00;;;31.90
15575;BMP180;7888;46.748;8.102;2022-08-21T13:04:12;94027.00;;;31.90
15575;BMP180;7888;46.748;8.102;2022-08-21T13:06:44;94035.00;;;32.00
15575;BMP180;7888;46.748;8.102;2022-08-21T13:09:15;94022.00;;;32.10
15575;BMP180;7888;46.748;8.102;2022-08-21T13:11:46;94020.00;;;32.10
15575;BMP180;7888;46.748;8.102;2022-08-21T13:14:35;94025.00;;;32.00
15575;BMP180;7888;46.748;8.102;2022-08-21T13:17:05;94034.00;;;32.10
15575;BMP180;7888;46.748;8.102;2022-08-21T13:19:32;94032.00;;;32.20
15575;BMP180;7888;46.748;8.102;2022-08-21T13:22:00;94024.00;;;32.30
15575;BMP180;7888;46.748;8.102;2022-08-21T13:24:37;94035.00;;;32.30
15575;BMP180;7888;46.748;8.102;2022-08-21T13:27:19;94019.00;;;32.40
15575;BMP180;7888;46.748;8.102;2022-08-21T13:29:46;94034.00;;;32.60
15575;BMP180;7888;46.748;8.102;2022-08-21T13:32:22;94021.00;;;32.50
15575;BMP180;7888;46.748;8.102;2022-08-21T13:34:50;94042.00;;;32.60
15575;BMP180;7888;46.748;8.102;2022-08-21T13:37:16;94036.00;;;32.60
15575;BMP180;7888;46.748;8.102;2022-08-21T13:39:51;94053.00;;;32.50
15575;BMP180;7888;46.748;8.102;2022-08-21T13:42:18;94032.00;;;32.50
15575;BMP180;7888;46.748;8.102;2022-08-21T13:44:47;94038.00;;;32.40
15575;BMP180;7888;46.748;8.102;2022-08-21T13:47:16;94014.00;;;32.40
15575;BMP180;7888;46.748;8.102;2022-08-21T13:49:47;94031.00;;;32.30
15575;BMP180;7888;46.748;8.102;2022-08-21T13:52:22;94033.00;;;32.30
15575;BMP180;7888;46.748;8.102;2022-08-21T13:55:08;94030.00;;;32.20
15575;BMP180;7888;46.748;8.102;2022-08-21T13:57:37;94030.00;;;32.30
15575;BMP180;7888;46.748;8.102;2022-08-21T14:02:49;94029.00;;;32.10
15575;BMP180;7888;46.748;8.102;2022-08-21T14:05:33;94012.00;;;32.10
15575;BMP180;7888;46.748;8.102;2022-08-21T14:08:20;94011.00;;;32.10
15575;BMP180;7888;46.748;8.102;2022-08-21T14:10:51;94023.00;;;32.20
15575;BMP180;7888;46.748;8.102;2022-08-21T14:16:40;94011.00;;;32.10
15575;BMP180;7888;46.748;8.102;2022-08-21T14:21:40;94016.00;;;32.00
15575;BMP180;7888;46.748;8.102;2022-08-21T14:24:29;94021.00;;;31.90
15575;BMP180;7888;46.748;8.102;2022-08-21T14:27:02;94020.00;;;31.90
15575;BMP180;7888;46.748;8.102;2022-08-21T14:29:39;94014.00;;;32.00
15575;BMP180;7888;46.748;8.102;2022-08-21T14:34:40;94020.00;;;32.20
15575;BMP180;7888;46.748;8.102;2022-08-21T14:37:06;94021.00;;;32.20
15575;BMP180;7888;46.748;8.102;2022-08-21T14:39:32;94031.00;;;32.10
15575;BMP180;7888;46.748;8.102;2022-08-21T14:41:59;94018.00;;;32.10
15575;BMP180;7888;46.748;8.102;2022-08-21T14:44:26;94023.00;;;32.00
15575;BMP180;7888;46.748;8.102;2022-08-21T14:46:53;94013.00;;;31.80
15575;BMP180;7888;46.748;8.102;2022-08-21T14:49:21;94007.00;;;31.70
15575;BMP180;7888;46.748;8.102;2022-08-21T14:51:47;94010.00;;;31.70
15575;BMP180;7888;46.748;8.102;2022-08-21T14:54:12;94001.00;;;31.70
15575;BMP180;7888;46.748;8.102;2022-08-21T14:56:38;94005.00;;;31.80
15575;BMP180;7888;46.748;8.102;2022-08-21T14:59:07;93999.00;;;31.80
15575;BMP180;7888;46.748;8.102;2022-08-21T15:01:37;94004.00;;;31.90
15575;BMP180;7888;46.748;8.102;2022-08-21T15:04:03;93999.00;;;31.80
15575;BMP180;7888;46.748;8.102;2022-08-21T15:06:29;94006.00;;;31.80
15575;BMP180;7888;46.748;8.102;2022-08-21T15:08:55;93997.00;;;31.80
15575;BMP180;7888;46.748;8.102;2022-08-21T15:11:23;94001.00;;;31.80
15575;BMP180;7888;46.748;8.102;2022-08-21T15:13:56;93999.00;;;31.80
15575;BMP180;7888;46.748;8.102;2022-08-21T15:16:23;93996.00;;;31.80
15575;BMP180;7888;46.748;8.102;2022-08-21T15:18:49;94000.00;;;31.80
15575;BMP180;7888;46.748;8.102;2022-08-21T15:21:15;93986.00;;;31.70
15575;BMP180;7888;46.748;8.102;2022-08-21T15:23:41;93999.00;;;31.60
15575;BMP180;7888;46.748;8.102;2022-08-21T15:26:07;93992.00;;;31.50
15575;BMP180;7888;46.748;8.102;2022-08-21T15:28:34;93991.00;;;31.40
15575;BMP180;7888;46.748;8.102;2022-08-21T15:31:00;93995.00;;;31.30
15575;BMP180;7888;46.748;8.102;2022-08-21T15:33:27;94000.00;;;31.30
